createdAt,value
2019-04-19T00:00:37.635Z,99.90
2019-04-19T00:03:12.696Z,99.90
2019-04-19T00:05:46.310Z,99.90
2019-04-19T00:08:28.794Z,99.90
2019-04-19T00:10:54.588Z,99.90
2019-04-19T00:13:19.760Z,99.90
2019-04-19T00:15:49.792Z,99.90
2019-04-19T00:18:21.359Z,99.90
2019-04-19T00:21:07.821Z,99.90
2019-04-19T00:23:31.160Z,99.90
2019-04-19T00:25:53.661Z,99.90
2019-04-19T00:28:35.250Z,99.90
2019-04-19T00:31:04.292Z,99.90
2019-04-19T00:33:32.826Z,99.90
2019-04-19T00:35:55.969Z,99.90
2019-04-19T00:38:45.264Z,99.90
2019-04-19T00:41:42.129Z,99.90
2019-04-19T00:44:39.894Z,99.90
2019-04-19T00:47:10.448Z,99.90
2019-04-19T00:49:33.693Z,99.90
2019-04-19T00:52:08.875Z,99.90
2019-04-19T00:54:31.997Z,99.90
2019-04-19T00:57:03.210Z,99.90
2019-04-19T00:59:33.154Z,99.90
2019-04-19T01:02:04.776Z,99.90
2019-04-19T01:04:32.016Z,99.90
2019-04-19T01:07:03.660Z,99.90
2019-04-19T01:09:44.169Z,99.90
2019-04-19T01:12:15.153Z,99.90
2019-04-19T01:14:40.393Z,99.90
2019-04-19T01:17:19.612Z,99.90
2019-04-19T01:19:45.079Z,99.90
2019-04-19T01:22:14.052Z,99.90
2019-04-19T01:24:44.557Z,99.90
2019-04-19T01:27:13.174Z,99.90
2019-04-19T01:29:46.836Z,99.90
2019-04-19T01:32:15.462Z,99.90
2019-04-19T01:34:46.759Z,99.90
2019-04-19T01:37:19.493Z,99.90
2019-04-19T01:40:04.315Z,99.90
2019-04-19T01:42:36.858Z,99.90
2019-04-19T01:45:15.300Z,99.90
2019-04-19T01:47:56.551Z,99.90
2019-04-19T01:51:04.440Z,99.90
2019-04-19T01:53:35.801Z,99.90
2019-04-19T01:55:54.272Z,99.90
2019-04-19T01:58:22.632Z,99.90
2019-04-19T02:00:56.733Z,99.90
2019-04-19T02:03:34.733Z,99.90
2019-04-19T02:06:01.267Z,99.90
2019-04-19T02:08:27.091Z,99.90
2019-04-19T02:11:43.260Z,99.90
2019-04-19T02:14:10.122Z,99.90
2019-04-19T02:16:34.619Z,99.90
2019-04-19T02:19:08.702Z,99.90
2019-04-19T02:21:38.072Z,99.90
2019-04-19T02:24:07.122Z,99.90
2019-04-19T02:26:40.506Z,99.90
2019-04-19T02:29:13.467Z,99.90
2019-04-19T02:32:09.170Z,99.90
2019-04-19T02:34:37.110Z,99.90
2019-04-19T02:37:08.004Z,99.90
2019-04-19T02:44:58.726Z,99.90
2019-04-19T02:47:26.858Z,99.90
2019-04-19T02:52:25.967Z,99.90
2019-04-19T02:55:07.768Z,99.90
2019-04-19T02:57:50.764Z,99.90
2019-04-19T03:00:47.169Z,99.90
2019-04-19T03:03:13.267Z,99.90
2019-04-19T03:07:53.771Z,99.90
2019-04-19T03:10:26.074Z,99.90
2019-04-19T03:13:08.041Z,99.90
2019-04-19T03:15:44.074Z,99.90
2019-04-19T03:18:19.674Z,99.90
2019-04-19T03:20:38.954Z,99.90
2019-04-19T03:23:13.175Z,99.90
2019-04-19T03:25:40.290Z,99.90
2019-04-19T03:28:11.071Z,99.90
2019-04-19T03:31:14.136Z,99.90
2019-04-19T03:35:57.093Z,99.90
2019-04-19T03:38:24.850Z,99.90
2019-04-19T03:40:54.207Z,99.90
2019-04-19T03:43:42.781Z,99.90
2019-04-19T03:46:07.829Z,99.90
2019-04-19T03:48:42.356Z,99.90
2019-04-19T03:53:48.818Z,99.90
2019-04-19T03:56:18.707Z,99.90
2019-04-19T03:58:26.683Z,99.90
2019-04-19T04:00:56.019Z,99.90
2019-04-19T04:03:31.289Z,99.90
2019-04-19T04:05:57.064Z,99.90
2019-04-19T04:08:32.338Z,99.90
2019-04-19T04:11:22.993Z,99.90
2019-04-19T04:14:12.726Z,99.90
2019-04-19T04:16:43.827Z,99.90
2019-04-19T04:19:10.302Z,99.90
2019-04-19T04:21:43.440Z,99.90
2019-04-19T04:24:20.803Z,99.90
2019-04-19T04:26:54.733Z,99.90
2019-04-19T04:29:22.893Z,99.90
2019-04-19T04:32:00.478Z,99.90
2019-04-19T04:34:27.026Z,99.90
2019-04-19T04:37:04.845Z,99.90
2019-04-19T04:39:19.683Z,99.90
2019-04-19T04:41:51.317Z,99.90
2019-04-19T04:44:40.848Z,99.90
2019-04-19T04:47:19.639Z,99.90
2019-04-19T04:50:18.113Z,99.90
2019-04-19T04:52:34.298Z,99.90
2019-04-19T04:55:09.705Z,99.90
2019-04-19T04:57:48.903Z,99.90
2019-04-19T05:00:10.196Z,99.90
2019-04-19T05:02:59.137Z,99.90
2019-04-19T05:05:30.107Z,99.90
2019-04-19T05:08:03.073Z,99.90
2019-04-19T05:10:29.424Z,99.90
2019-04-19T05:13:18.632Z,99.90
2019-04-19T05:15:34.747Z,99.90
2019-04-19T05:18:12.108Z,99.90
2019-04-19T05:20:38.474Z,99.90
2019-04-19T05:23:03.322Z,99.90
2019-04-19T05:25:41.244Z,99.90
2019-04-19T05:28:13.935Z,99.90
2019-04-19T05:30:34.805Z,99.90
2019-04-19T05:33:05.872Z,99.90
2019-04-19T05:35:50.395Z,99.90
2019-04-19T05:38:30.464Z,99.90
2019-04-19T05:41:08.233Z,99.90
2019-04-19T05:46:44.375Z,99.90
2019-04-19T05:49:45.803Z,99.90
2019-04-19T05:53:09.964Z,99.90
2019-04-19T06:07:56.646Z,99.90
2019-04-19T06:10:17.274Z,99.90
2019-04-19T06:12:49.584Z,99.90
2019-04-19T06:15:40.599Z,99.90
2019-04-19T06:18:31.756Z,99.90
2019-04-19T06:21:10.566Z,99.90
2019-04-19T06:23:43.914Z,99.90
2019-04-19T06:26:46.594Z,99.90
2019-04-19T06:28:50.503Z,99.90
2019-04-19T06:31:19.543Z,99.90
2019-04-19T06:33:42.714Z,99.90
2019-04-19T06:36:06.024Z,99.90
2019-04-19T06:38:33.504Z,99.90
2019-04-19T06:41:10.707Z,99.90
2019-04-19T06:43:50.605Z,99.90
2019-04-19T06:46:22.863Z,99.90
2019-04-19T06:48:52.333Z,99.90
2019-04-19T06:51:23.031Z,99.90
2019-04-19T06:53:50.314Z,99.90
2019-04-19T06:56:22.782Z,99.90
2019-04-19T06:58:55.871Z,99.90
2019-04-19T07:01:32.499Z,99.90
2019-04-19T07:03:52.172Z,99.90
2019-04-19T07:06:36.076Z,99.90
2019-04-19T07:09:31.116Z,99.90
2019-04-19T07:11:46.566Z,99.90
2019-04-19T07:14:06.688Z,99.90
2019-04-19T07:16:50.118Z,99.90
2019-04-19T07:19:19.311Z,99.90
2019-04-19T07:21:46.927Z,99.90
2019-04-19T07:24:36.475Z,99.90
2019-04-19T07:26:57.897Z,99.90
2019-04-19T07:29:12.738Z,99.90
2019-04-19T07:31:43.089Z,99.80
2019-04-19T07:34:30.983Z,99.70
2019-04-19T07:37:02.062Z,99.20
2019-04-19T07:39:38.887Z,98.70
2019-04-19T07:42:10.885Z,98.20
2019-04-19T07:44:41.093Z,97.10
2019-04-19T07:47:37.416Z,96.50
2019-04-19T07:50:08.420Z,95.80
2019-04-19T07:52:46.305Z,95.30
2019-04-19T07:58:16.990Z,93.00
2019-04-19T08:05:41.077Z,91.30
2019-04-19T08:08:17.573Z,90.70
2019-04-19T08:13:24.991Z,86.20
2019-04-19T08:15:56.013Z,85.30
2019-04-19T08:18:34.338Z,80.30
2019-04-19T08:28:13.113Z,74.90
2019-04-19T08:30:37.960Z,73.20
2019-04-19T08:33:02.063Z,71.70
2019-04-19T08:35:38.994Z,69.80
2019-04-19T08:38:08.596Z,69.40
2019-04-19T08:40:55.489Z,66.50
2019-04-19T08:43:21.347Z,64.60
2019-04-19T08:45:58.716Z,61.80
2019-04-19T08:48:53.517Z,61.50
2019-04-19T08:51:42.020Z,58.20
2019-04-19T08:54:31.651Z,57.30
2019-04-19T08:56:53.259Z,53.90
2019-04-19T08:59:39.658Z,53.00
2019-04-19T09:02:06.642Z,50.80
2019-04-19T09:04:38.793Z,49.70
2019-04-19T09:07:35.112Z,48.60
2019-04-19T09:09:42.716Z,46.90
2019-04-19T09:12:12.323Z,46.10
2019-04-19T09:14:43.659Z,45.90
2019-04-19T09:17:30.004Z,44.80
2019-04-19T09:20:04.370Z,44.80
2019-04-19T09:22:11.164Z,45.20
2019-04-19T09:24:41.392Z,44.00
2019-04-19T09:30:27.650Z,44.10
2019-04-19T09:32:40.173Z,43.80
2019-04-19T09:35:11.240Z,43.00
2019-04-19T09:38:00.387Z,41.80
2019-04-19T09:40:27.536Z,42.00
2019-04-19T09:46:23.178Z,41.50
2019-04-19T09:49:08.492Z,41.60
2019-04-19T09:51:41.457Z,43.00
2019-04-19T09:54:17.382Z,41.80
2019-04-19T09:56:41.228Z,41.80
2019-04-19T09:59:06.039Z,42.00
2019-04-19T10:01:30.217Z,40.30
2019-04-19T10:04:02.445Z,40.90
2019-04-19T10:06:28.869Z,40.20
2019-04-19T10:08:58.113Z,39.50
2019-04-19T10:11:27.367Z,39.60
2019-04-19T10:14:00.025Z,39.60
2019-04-19T10:16:52.612Z,39.50
2019-04-19T10:19:21.605Z,39.00
2019-04-19T10:22:04.517Z,39.40
2019-04-19T10:24:36.984Z,39.00
2019-04-19T10:27:31.498Z,38.60
2019-04-19T10:30:02.219Z,38.60
2019-04-19T10:32:58.246Z,39.00
2019-04-19T10:35:41.212Z,39.00
2019-04-19T10:38:09.871Z,37.70
2019-04-19T10:40:39.622Z,36.70
2019-04-19T10:43:09.263Z,36.70
2019-04-19T10:45:38.712Z,36.00
2019-04-19T10:48:07.689Z,36.10
2019-04-19T10:50:55.066Z,35.80
2019-04-19T10:53:24.359Z,36.60
2019-04-19T10:56:00.913Z,36.20
2019-04-19T10:58:29.858Z,36.20
2019-04-19T11:01:01.018Z,35.60
2019-04-19T11:03:59.034Z,36.10
2019-04-19T11:06:29.372Z,36.00
2019-04-19T11:09:00.499Z,36.10
2019-04-19T11:14:03.840Z,34.20
2019-04-19T11:16:33.377Z,34.50
2019-04-19T11:22:59.639Z,35.20
2019-04-19T11:25:46.629Z,34.50
2019-04-19T11:28:21.422Z,34.00
2019-04-19T11:31:05.109Z,33.80
2019-04-19T11:33:41.253Z,33.70
2019-04-19T11:36:11.177Z,35.20
2019-04-19T11:38:40.928Z,35.80
2019-04-19T11:41:11.229Z,34.60
2019-04-19T11:43:40.585Z,34.30
2019-04-19T11:46:09.731Z,33.80
2019-04-19T11:48:39.626Z,34.50
2019-04-19T11:51:09.751Z,34.50
2019-04-19T11:53:45.155Z,33.90
2019-04-19T11:56:54.186Z,32.50
2019-04-19T12:00:21.958Z,33.60
2019-04-19T12:03:20.220Z,33.30
2019-04-19T12:05:50.369Z,32.50
2019-04-19T12:08:22.481Z,33.70
2019-04-19T12:10:54.451Z,33.90
2019-04-19T12:13:24.863Z,34.00
2019-04-19T12:19:18.247Z,33.60
2019-04-19T12:21:47.599Z,34.00
2019-04-19T12:24:17.242Z,34.70
2019-04-19T12:26:47.634Z,34.40
2019-04-19T12:29:26.243Z,33.80
2019-04-19T12:31:49.747Z,34.30
2019-04-19T12:34:21.572Z,33.90
2019-04-19T12:36:51.005Z,34.10
2019-04-19T12:39:20.932Z,34.50
2019-04-19T12:41:50.203Z,34.80
2019-04-19T12:44:19.166Z,34.90
2019-04-19T12:46:48.755Z,34.10
2019-04-19T12:49:18.624Z,34.00
2019-04-19T12:51:48.659Z,34.80
2019-04-19T12:54:18.215Z,34.80
2019-04-19T12:56:47.634Z,34.50
2019-04-19T13:30:31.965Z,34.00
2019-04-19T13:33:39.569Z,33.80
2019-04-19T14:16:41.914Z,32.90
2019-04-19T14:20:36.961Z,31.70
2019-04-19T14:23:59.577Z,31.90
2019-04-19T14:43:02.541Z,31.10
2019-04-19T15:22:16.879Z,30.70
2019-04-19T15:29:45.503Z,30.40
2019-04-19T15:37:01.977Z,30.30
2019-04-19T15:51:13.547Z,31.10
2019-04-19T15:54:25.895Z,31.30
2019-04-19T16:02:16.528Z,30.50
2019-04-19T19:20:57.605Z,40.80
2019-04-19T19:29:14.094Z,42.20
2019-04-19T19:32:04.803Z,43.80
2019-04-19T19:34:39.416Z,43.20
2019-04-19T19:40:19.729Z,44.00
2019-04-19T19:42:56.062Z,43.90
2019-04-19T20:04:02.718Z,45.70
2019-04-19T20:06:58.667Z,45.50
2019-04-19T20:16:40.427Z,46.50
2019-04-19T20:23:58.937Z,46.30
2019-04-19T20:32:12.151Z,47.50
2019-04-19T20:38:49.772Z,48.10
